Terminal Aerodrome Forecast
Issued by NWS

Current Version | Previous Version | Text Only | Print | Product List | Glossary On
Versions: 1 2 3 4 5 6 7 8 9 10 11 12
000
FTUS46 KSTO 241700
TAFRBL
TAF
KRBL 241720Z 2418/2518 35014G23KT P6SM SKC
     FM242200 35009KT P6SM SKC
     FM250400 33006KT P6SM SKC=

USA.gov is the U.S. government's official web portal to all federal, state and local government web resources and services.